Time;durP1;ratioP1;P1;durP2;ratioP2;P2;SDS_P1;SDS_P2;PMS_P1;PMS_P2;Temp;Humidity;BMP_temperature;BMP_pressure;BME280_temperature;BME280_humidity;BME280_pressure;Samples;Min_cycle;Max_cycle;Signal;HPM_P1;HPM_P2
2021/10/20 00:00:11;;;;;;;7.18;2.72;;;;;;;6.24;100.00;95717.59;5028044;28;20025;-59
2021/10/20 00:02:37;;;;;;;4.38;2.67;;;;;;;6.20;100.00;95711.09;5010970;28;20026;-59
2021/10/20 00:05:03;;;;;;;5.40;2.60;;;;;;;6.19;100.00;95707.63;5010003;28;20033;-59
2021/10/20 00:07:28;;;;;;;4.97;2.55;;;;;;;6.16;100.00;95707.22;5026942;28;20028;-59
2021/10/20 00:09:54;;;;;;;3.85;2.30;;;;;;;6.11;100.00;95707.91;5009552;28;20026;-61
2021/10/20 00:12:21;;;;;;;7.30;2.40;;;;;;;6.09;100.00;95702.00;5011564;28;20022;-59
2021/10/20 00:14:49;;;;;;;5.53;2.42;;;;;;;6.08;100.00;95701.19;5011634;28;20028;-59
2021/10/20 00:17:14;;;;;;;2.85;2.20;;;;;;;6.07;100.00;95698.72;5011236;28;20030;-55
2021/10/20 00:19:40;;;;;;;4.65;2.50;;;;;;;6.04;100.00;95701.84;5010664;28;20033;-54
2021/10/20 00:22:17;;;;;;;5.60;2.63;;;;;;;6.06;100.00;95697.09;5010094;28;20072;-55
2021/10/20 00:24:43;;;;;;;6.60;2.30;;;;;;;6.13;100.00;95684.56;5010785;28;20080;-55
2021/10/20 00:27:18;;;;;;;4.63;2.30;;;;;;;6.16;100.00;95676.13;5010184;28;20026;-57
2021/10/20 00:29:43;;;;;;;3.28;2.30;;;;;;;6.15;100.00;95682.47;5009394;28;20104;-56
2021/10/20 00:32:17;;;;;;;3.80;2.30;;;;;;;6.11;100.00;95670.69;5009622;28;20675;-59
2021/10/20 00:34:48;;;;;;;2.83;2.03;;;;;;;6.16;100.00;95680.63;5017492;28;20029;-58
2021/10/20 00:37:16;;;;;;;4.07;2.25;;;;;;;6.21;100.00;95684.28;5031144;28;20033;-59
2021/10/20 00:42:13;;;;;;;2.50;1.95;;;;;;;6.23;100.00;95673.41;5033880;28;20053;-62
2021/10/20 00:44:49;;;;;;;2.55;1.80;;;;;;;6.27;100.00;95666.59;5033896;28;20025;-61
2021/10/20 00:47:16;;;;;;;3.47;2.10;;;;;;;6.29;100.00;95664.50;5035308;28;20021;-62
2021/10/20 00:49:42;;;;;;;5.93;2.05;;;;;;;6.29;100.00;95661.84;5034307;28;20029;-62
2021/10/20 00:52:07;;;;;;;4.22;2.25;;;;;;;6.30;100.00;95660.84;5016816;28;20025;-62
2021/10/20 00:54:33;;;;;;;4.95;2.22;;;;;;;6.33;100.00;95655.88;5043584;28;20036;-61
2021/10/20 00:57:02;;;;;;;3.60;2.28;;;;;;;6.39;100.00;95652.31;5019930;28;20475;-61
2021/10/20 00:59:27;;;;;;;3.83;1.92;;;;;;;6.41;100.00;95654.75;5050142;28;20448;-62
2021/10/20 01:01:56;;;;;;;3.55;2.15;;;;;;;6.38;100.00;95648.03;5016965;28;20052;-62
2021/10/20 01:04:27;;;;;;;4.68;2.33;;;;;;;6.38;100.00;95644.56;5018664;28;20087;-61
2021/10/20 01:06:53;;;;;;;5.03;2.00;;;;;;;6.38;100.00;95642.69;5033474;28;20104;-62
2021/10/20 01:09:19;;;;;;;3.08;2.33;;;;;;;6.49;100.00;95633.16;5034198;28;20172;-62
2021/10/20 01:11:50;;;;;;;5.13;2.00;;;;;;;6.51;100.00;95631.09;5034214;28;20035;-62
2021/10/20 01:14:15;;;;;;;3.30;2.28;;;;;;;6.51;100.00;95631.09;5034106;28;20025;-62
2021/10/20 01:16:42;;;;;;;4.22;1.98;;;;;;;6.49;100.00;95627.00;5034868;28;20068;-62
2021/10/20 01:19:13;;;;;;;3.35;2.47;;;;;;;6.50;100.00;95618.78;5049623;28;20037;-62
2021/10/20 01:21:39;;;;;;;3.40;1.80;;;;;;;6.44;100.00;95616.25;5016402;28;20029;-62
2021/10/20 01:24:05;;;;;;;3.85;2.42;;;;;;;6.36;100.00;95610.19;5034939;28;20025;-62
2021/10/20 01:26:33;;;;;;;3.47;2.25;;;;;;;6.33;100.00;95610.66;5034211;28;20041;-62
2021/10/20 01:29:01;;;;;;;3.05;1.92;;;;;;;6.33;100.00;95615.16;5033905;28;20025;-62
2021/10/20 01:31:27;;;;;;;2.90;1.75;;;;;;;6.30;100.00;95615.63;5015962;28;20028;-62
2021/10/20 01:34:02;;;;;;;6.13;1.88;;;;;;;6.32;100.00;95609.03;5033056;28;20476;-62
2021/10/20 01:36:30;;;;;;;4.85;2.08;;;;;;;6.29;100.00;95608.66;5036330;28;20519;-61
2021/10/20 01:38:56;;;;;;;3.92;2.28;;;;;;;6.24;100.00;95609.34;5032278;28;20446;-62
2021/10/20 01:41:24;;;;;;;2.97;2.00;;;;;;;6.24;100.00;95606.66;5037946;28;20095;-60
2021/10/20 01:43:50;;;;;;;4.75;2.20;;;;;;;6.23;100.00;95610.38;5032855;28;20076;-61
2021/10/20 01:46:19;;;;;;;4.80;1.75;;;;;;;6.19;100.00;95609.22;5049718;28;20049;-60
2021/10/20 01:48:46;;;;;;;3.85;2.08;;;;;;;6.12;100.00;95605.00;5032732;28;20041;-61
2021/10/20 01:51:12;;;;;;;4.55;1.73;;;;;;;6.09;100.00;95598.28;5036821;28;20021;-62
2021/10/20 01:53:44;;;;;;;3.38;1.83;;;;;;;6.03;100.00;95596.50;5032596;28;20033;-61
2021/10/20 01:56:11;;;;;;;2.75;1.90;;;;;;;5.93;100.00;95591.72;5028829;28;20056;-61
2021/10/20 01:58:41;;;;;;;6.40;1.88;;;;;;;5.92;100.00;95589.28;5016170;28;20056;-61
2021/10/20 02:01:09;;;;;;;2.72;1.80;;;;;;;5.92;100.00;95583.97;5023952;28;20061;-62
2021/10/20 02:03:39;;;;;;;2.85;2.13;;;;;;;5.94;100.00;95579.22;5025299;28;20092;-62
2021/10/20 02:06:29;;;;;;;2.90;1.92;;;;;;;5.94;100.00;95587.22;5016156;28;20048;-62
2021/10/20 02:08:54;;;;;;;3.25;1.70;;;;;;;5.90;100.00;95573.56;5010334;28;20404;-62
2021/10/20 02:11:20;;;;;;;9.55;2.17;;;;;;;5.91;100.00;95579.69;5040914;28;20020;-62
2021/10/20 02:13:45;;;;;;;8.20;2.28;;;;;;;5.94;100.00;95569.41;5047834;28;20029;-62
2021/10/20 02:16:11;;;;;;;2.78;1.77;;;;;;;5.96;100.00;95564.66;5033618;28;20018;-61
2021/10/20 02:18:36;;;;;;;2.67;1.77;;;;;;;6.08;100.00;95552.25;5032371;28;20021;-60
2021/10/20 02:21:02;;;;;;;2.88;1.92;;;;;;;6.08;100.00;95557.59;5005400;28;20036;-61
2021/10/20 02:23:30;;;;;;;4.15;2.25;;;;;;;6.12;100.00;95543.81;5015531;28;20029;-60
2021/10/20 02:25:56;;;;;;;4.07;2.20;;;;;;;6.16;100.00;95545.00;5014868;28;20076;-61
2021/10/20 02:28:25;;;;;;;4.22;2.17;;;;;;;6.20;100.00;95548.84;5048699;28;20045;-62
2021/10/20 02:30:50;;;;;;;3.60;2.58;;;;;;;6.28;100.00;95537.84;5032696;28;20048;-61
2021/10/20 02:33:16;;;;;;;3.47;2.00;;;;;;;6.34;100.00;95534.31;5016222;28;20029;-62
2021/10/20 02:35:44;;;;;;;3.65;2.33;;;;;;;6.44;100.00;95528.44;5012792;28;20018;-62
2021/10/20 02:38:09;;;;;;;4.35;2.10;;;;;;;6.45;100.00;95522.06;5033066;28;20017;-62
2021/10/20 02:40:41;;;;;;;4.55;2.40;;;;;;;6.47;100.00;95518.13;5032492;28;20388;-61
2021/10/20 02:43:09;;;;;;;3.45;2.33;;;;;;;6.49;100.00;95513.38;5040676;28;20032;-61
2021/10/20 02:45:34;;;;;;;4.97;2.70;;;;;;;6.55;100.00;95509.81;5002146;28;20064;-60
2021/10/20 02:48:03;;;;;;;5.05;2.35;;;;;;;6.70;100.00;95512.03;4999108;28;20061;-62
2021/10/20 02:50:31;;;;;;;3.97;2.10;;;;;;;6.75;100.00;95506.84;5032127;28;20037;-62
2021/10/20 02:53:00;;;;;;;3.53;2.63;;;;;;;6.78;100.00;95502.91;5032179;28;20025;-60
2021/10/20 02:55:25;;;;;;;3.92;2.53;;;;;;;6.89;100.00;95502.91;5032684;28;20021;-61
2021/10/20 02:57:53;;;;;;;3.03;2.25;;;;;;;6.94;100.00;95495.03;5031245;28;20116;-62
2021/10/20 03:00:19;;;;;;;3.38;2.10;;;;;;;6.96;100.00;95497.47;5032237;28;20025;-62
2021/10/20 03:02:47;;;;;;;4.65;2.63;;;;;;;6.97;100.00;95494.59;5032806;28;20079;-62
2021/10/20 03:05:19;;;;;;;2.65;2.17;;;;;;;6.93;100.00;95492.59;5032723;28;20052;-61
2021/10/20 03:07:48;;;;;;;6.93;2.80;;;;;;;6.90;100.00;95491.22;5032512;28;20021;-61
2021/10/20 03:10:17;;;;;;;5.18;2.30;;;;;;;6.88;100.00;95495.16;5031820;28;20075;-56
2021/10/20 03:12:42;;;;;;;5.05;2.20;;;;;;;6.84;100.00;95484.16;5017819;28;20437;-62
2021/10/20 03:15:11;;;;;;;3.63;2.20;;;;;;;6.77;100.00;95488.78;5033589;28;20029;-62
2021/10/20 03:17:37;;;;;;;3.40;2.10;;;;;;;6.72;100.00;95480.66;5031237;28;20024;-62
2021/10/20 03:20:15;;;;;;;7.72;2.38;;;;;;;6.72;100.00;95475.34;5047446;28;20025;-62
2021/10/20 03:22:42;;;;;;;3.03;2.28;;;;;;;6.67;100.00;95483.22;5030917;28;20554;-62
2021/10/20 03:25:14;;;;;;;4.65;2.40;;;;;;;6.59;100.00;95479.03;5032257;28;20441;-62
2021/10/20 03:27:44;;;;;;;2.92;1.90;;;;;;;6.53;100.00;95471.19;5035025;28;20021;-62
2021/10/20 03:30:10;;;;;;;4.55;2.53;;;;;;;6.52;100.00;95472.22;5013480;28;20060;-62
2021/10/20 03:32:35;;;;;;;3.25;2.25;;;;;;;6.46;100.00;95467.81;5026385;28;20030;-62
2021/10/20 03:35:01;;;;;;;4.45;2.08;;;;;;;6.45;100.00;95468.84;5031836;28;20072;-62
2021/10/20 03:37:26;;;;;;;3.08;2.03;;;;;;;6.40;100.00;95469.53;5030691;28;20025;-61
2021/10/20 03:39:58;;;;;;;3.50;2.53;;;;;;;6.36;100.00;95466.53;5031788;28;20025;-61
2021/10/20 03:42:23;;;;;;;4.13;2.20;;;;;;;6.26;100.00;95460.94;5038022;28;20108;-62
2021/10/20 03:44:51;;;;;;;3.70;2.30;;;;;;;6.22;100.00;95469.63;5045610;28;20148;-61
2021/10/20 03:47:17;;;;;;;4.80;2.20;;;;;;;6.16;100.00;95460.69;5029972;28;20494;-61
2021/10/20 03:49:46;;;;;;;2.70;2.10;;;;;;;6.13;100.00;95458.50;5031009;28;20042;-61
2021/10/20 03:52:12;;;;;;;4.05;2.30;;;;;;;6.10;100.00;95457.09;5043302;28;20022;-62
2021/10/20 03:54:41;;;;;;;5.25;2.10;;;;;;;6.08;100.00;95471.69;5040844;28;20078;-62
2021/10/20 03:57:09;;;;;;;6.68;1.92;;;;;;;6.09;100.00;95457.34;5030232;28;20030;-62
2021/10/20 03:59:35;;;;;;;3.97;2.28;;;;;;;6.12;100.00;95454.22;5031235;28;20032;-61
2021/10/20 04:02:00;;;;;;;3.40;2.10;;;;;;;6.11;100.00;95447.28;5031367;28;20029;-62
2021/10/20 04:04:29;;;;;;;3.47;2.42;;;;;;;6.07;100.00;95454.88;5038037;28;20025;-61
2021/10/20 04:07:06;;;;;;;3.45;1.88;;;;;;;6.01;100.00;95447.84;5031429;28;20036;-61
2021/10/20 04:09:35;;;;;;;2.63;2.08;;;;;;;6.08;100.00;95442.44;5030791;28;20148;-62
2021/10/20 04:12:00;;;;;;;4.93;2.22;;;;;;;6.14;100.00;95440.69;5038004;28;20021;-61
2021/10/20 04:14:26;;;;;;;6.30;2.00;;;;;;;6.23;100.00;95441.97;5014693;28;20396;-61
2021/10/20 04:16:56;;;;;;;3.10;2.30;;;;;;;6.25;100.00;95438.03;5013627;28;20057;-61
2021/10/20 04:19:31;;;;;;;4.10;2.28;;;;;;;6.24;100.00;95443.59;5030693;28;20537;-58
2021/10/20 04:21:56;;;;;;;3.90;2.47;;;;;;;6.26;100.00;95447.66;5046160;28;20036;-56
2021/10/20 04:24:21;;;;;;;5.28;2.70;;;;;;;6.22;100.00;95441.19;5031420;28;20399;-61
2021/10/20 04:26:50;;;;;;;3.38;1.98;;;;;;;6.21;100.00;95439.56;5021721;28;20395;-61
2021/10/20 04:29:15;;;;;;;3.47;2.40;;;;;;;6.17;100.00;95445.53;5030832;28;20030;-61
2021/10/20 04:31:40;;;;;;;4.75;2.75;;;;;;;6.10;100.00;95435.84;5028962;28;20033;-62
2021/10/20 04:34:06;;;;;;;5.93;3.00;;;;;;;6.04;100.00;95434.06;5031060;28;20133;-62
2021/10/20 04:36:31;;;;;;;6.72;2.85;;;;;;;6.12;100.00;95434.78;5029840;28;20053;-62
2021/10/20 04:39:03;;;;;;;3.60;2.75;;;;;;;6.20;100.00;95432.63;5029531;28;20047;-61
2021/10/20 04:41:31;;;;;;;3.72;2.47;;;;;;;6.23;100.00;95437.47;5032253;28;20522;-61
2021/10/20 04:43:57;;;;;;;3.97;2.35;;;;;;;6.24;100.00;95430.31;5043053;28;20037;-61
2021/10/20 04:46:28;;;;;;;4.25;3.08;;;;;;;6.30;100.00;95424.88;5046494;28;20104;-61
2021/10/20 04:48:54;;;;;;;3.90;2.65;;;;;;;6.36;100.00;95415.16;5030536;28;20025;-61
2021/10/20 04:51:19;;;;;;;5.85;2.50;;;;;;;6.33;100.00;95419.09;5031846;28;20030;-61
2021/10/20 04:53:47;;;;;;;4.82;2.75;;;;;;;6.31;100.00;95410.53;5022227;28;20017;-62
2021/10/20 04:56:12;;;;;;;3.38;2.50;;;;;;;6.26;100.00;95409.59;5030520;28;20029;-63
2021/10/20 04:58:38;;;;;;;5.03;2.97;;;;;;;6.19;100.00;95409.72;5012593;28;20411;-61
2021/10/20 05:01:06;;;;;;;5.20;2.60;;;;;;;6.12;100.00;95405.53;5030739;28;20032;-61
2021/10/20 05:03:31;;;;;;;4.22;2.75;;;;;;;6.08;100.00;95408.66;5013828;28;20106;-62
2021/10/20 05:05:57;;;;;;;3.17;2.38;;;;;;;6.07;100.00;95400.88;5030991;28;20113;-62
2021/10/20 05:08:28;;;;;;;5.95;3.03;;;;;;;6.09;100.00;95401.50;5030982;28;20089;-61
2021/10/20 05:11:00;;;;;;;4.88;3.00;;;;;;;6.10;100.00;95395.13;5040730;28;20036;-58
2021/10/20 05:13:28;;;;;;;5.10;3.00;;;;;;;6.08;100.00;95402.53;5029116;28;20028;-60
2021/10/20 05:15:57;;;;;;;4.00;2.35;;;;;;;6.03;100.00;95391.75;5030768;28;20087;-60
2021/10/20 05:18:22;;;;;;;7.82;3.83;;;;;;;6.00;100.00;95381.59;5009650;28;20032;-61
2021/10/20 05:20:47;;;;;;;4.35;2.88;;;;;;;5.93;100.00;95386.19;5021991;28;20037;-61
2021/10/20 05:23:13;;;;;;;5.25;2.80;;;;;;;5.89;100.00;95383.16;5046164;28;20034;-61
2021/10/20 05:25:38;;;;;;;7.15;2.67;;;;;;;5.88;100.00;95386.84;5019213;28;20037;-62
2021/10/20 05:28:07;;;;;;;3.72;2.78;;;;;;;5.82;100.00;95390.41;5028221;28;20053;-61
2021/10/20 05:30:33;;;;;;;5.65;2.70;;;;;;;5.75;100.00;95395.00;5019640;28;20437;-61
2021/10/20 05:32:58;;;;;;;4.03;2.92;;;;;;;5.66;100.00;95394.53;4993648;28;20053;-62
2021/10/20 05:35:24;;;;;;;5.47;3.03;;;;;;;5.60;100.00;95398.09;5017953;28;20029;-62
2021/10/20 05:37:51;;;;;;;3.65;2.60;;;;;;;5.55;100.00;95395.31;5024683;28;20061;-60
2021/10/20 05:40:17;;;;;;;6.50;2.90;;;;;;;5.59;100.00;95395.66;5028810;28;20099;-61
2021/10/20 05:42:46;;;;;;;4.07;2.85;;;;;;;5.56;100.00;95396.94;5025178;28;20140;-62
2021/10/20 05:45:12;;;;;;;4.25;3.20;;;;;;;5.51;100.00;95396.78;5007829;28;20025;-61
2021/10/20 05:47:37;;;;;;;4.10;2.70;;;;;;;5.44;100.00;95398.72;5025945;28;20120;-61
2021/10/20 05:50:03;;;;;;;4.03;2.83;;;;;;;5.40;100.00;95397.53;5010610;28;20029;-61
2021/10/20 05:52:29;;;;;;;4.45;3.10;;;;;;;5.44;100.00;95396.88;5023570;28;20017;-59
2021/10/20 05:54:54;;;;;;;3.92;3.05;;;;;;;5.71;100.00;95394.66;5024336;28;20125;-61
2021/10/20 05:57:21;;;;;;;5.50;3.08;;;;;;;5.80;100.00;95387.97;4997166;28;20029;-61
2021/10/20 05:59:47;;;;;;;5.72;2.97;;;;;;;5.79;100.00;95390.88;5025453;28;20021;-59
2021/10/20 06:02:14;;;;;;;4.15;3.20;;;;;;;5.81;100.00;95378.97;5028417;28;20028;-61
2021/10/20 06:04:42;;;;;;;7.15;3.15;;;;;;;5.85;100.00;95384.63;5026340;28;20025;-61
2021/10/20 06:07:08;;;;;;;4.60;3.40;;;;;;;5.91;100.00;95388.28;5011136;28;20523;-61
2021/10/20 06:09:36;;;;;;;3.72;3.10;;;;;;;5.92;100.00;95384.56;5011952;28;20032;-61
2021/10/20 06:12:03;;;;;;;4.22;3.05;;;;;;;6.08;100.00;95386.59;5029471;28;20108;-61
2021/10/20 06:14:28;;;;;;;4.97;3.58;;;;;;;6.13;100.00;95392.00;4991342;28;20451;-63
2021/10/20 06:16:54;;;;;;;4.80;3.45;;;;;;;6.13;100.00;95397.31;5026451;28;20045;-63
2021/10/20 06:19:19;;;;;;;6.15;3.35;;;;;;;6.20;100.00;95400.69;5021054;28;20033;-63
2021/10/20 06:21:47;;;;;;;5.80;3.08;;;;;;;6.22;100.00;95393.28;5030617;28;20026;-63
2021/10/20 06:24:12;;;;;;;7.20;3.45;;;;;;;6.53;100.00;95396.66;5029970;28;20025;-60
2021/10/20 06:26:38;;;;;;;5.93;3.42;;;;;;;6.94;100.00;95391.16;5014043;28;20095;-63
2021/10/20 06:29:03;;;;;;;5.85;3.40;;;;;;;7.14;100.00;95393.44;5004763;28;20029;-63
2021/10/20 06:31:29;;;;;;;4.78;3.38;;;;;;;7.23;100.00;95384.06;5016976;28;20068;-63
2021/10/20 06:33:54;;;;;;;5.30;3.42;;;;;;;7.52;100.00;95389.41;5029869;28;20135;-63
2021/10/20 06:36:31;;;;;;;6.35;3.65;;;;;;;7.76;100.00;95384.78;5026291;28;20048;-63
2021/10/20 06:38:57;;;;;;;6.10;3.60;;;;;;;8.17;100.00;95385.47;5006055;28;20141;-62
2021/10/20 06:41:22;;;;;;;10.27;4.32;;;;;;;8.53;100.00;95389.53;4993775;28;20492;-62
2021/10/20 06:43:48;;;;;;;15.20;5.75;;;;;;;8.69;100.00;95383.38;5005321;28;20045;-63
2021/10/20 06:46:13;;;;;;;16.05;6.07;;;;;;;8.80;100.00;95374.47;4991201;28;20560;-63
2021/10/20 06:48:42;;;;;;;14.35;6.38;;;;;;;8.99;100.00;95370.41;5011728;28;20018;-63
2021/10/20 06:51:09;;;;;;;9.88;5.57;;;;;;;9.19;100.00;95377.88;4998357;28;20451;-61
2021/10/20 06:53:35;;;;;;;27.65;10.98;;;;;;;9.35;100.00;95376.22;4994992;28;20026;-62
2021/10/20 06:56:02;;;;;;;18.50;7.65;;;;;;;9.46;100.00;95369.13;5012241;28;20033;-63
2021/10/20 06:58:28;;;;;;;12.05;5.80;;;;;;;9.59;100.00;95376.75;4997894;28;20045;-62
2021/10/20 07:00:53;;;;;;;10.10;4.25;;;;;;;9.64;100.00;95370.63;5012147;28;20140;-63
2021/10/20 07:03:18;;;;;;;8.93;4.18;;;;;;;9.68;100.00;95353.03;4996018;28;20088;-63
2021/10/20 07:05:44;;;;;;;5.35;3.67;;;;;;;9.81;100.00;95344.59;5011733;28;20029;-63
2021/10/20 07:08:09;;;;;;;8.07;3.58;;;;;;;10.00;100.00;95339.69;5012115;28;20097;-63
2021/10/20 07:10:36;;;;;;;6.30;3.50;;;;;;;10.07;100.00;95338.41;5011962;28;20037;-62
2021/10/20 07:13:02;;;;;;;4.93;3.53;;;;;;;10.15;100.00;95329.91;4994343;28;20033;-63
2021/10/20 07:15:27;;;;;;;6.00;3.40;;;;;;;10.23;100.00;95328.69;5011959;28;20037;-63
2021/10/20 07:17:53;;;;;;;4.40;2.97;;;;;;;10.51;100.00;95314.13;5011900;28;20512;-62
2021/10/20 07:20:18;;;;;;;5.85;3.20;;;;;;;10.82;100.00;95298.22;5011419;28;20030;-62
2021/10/20 07:22:43;;;;;;;6.35;3.13;;;;;;;11.14;100.00;95276.66;4994581;28;20071;-63
2021/10/20 07:25:11;;;;;;;5.28;3.30;;;;;;;11.46;100.00;95258.50;5012198;28;20088;-61
2021/10/20 07:27:37;;;;;;;5.47;3.55;;;;;;;11.70;100.00;95228.47;5017485;28;20366;-63
2021/10/20 07:30:05;;;;;;;7.05;3.22;;;;;;;11.86;100.00;95206.78;5010964;28;20037;-63
2021/10/20 07:32:31;;;;;;;4.53;3.17;;;;;;;11.99;100.00;95158.97;4994654;28;20040;-62
2021/10/20 07:34:56;;;;;;;5.50;3.20;;;;;;;12.06;100.00;95119.25;5011712;28;20477;-63
2021/10/20 07:37:21;;;;;;;3.70;2.88;;;;;;;12.11;100.00;95078.94;4996302;28;20026;-63
2021/10/20 07:39:47;;;;;;;4.32;2.80;;;;;;;12.21;100.00;95045.88;5014090;28;20029;-62
2021/10/20 07:42:12;;;;;;;6.68;3.67;;;;;;;12.27;100.00;95020.63;5015483;28;20150;-63
2021/10/20 07:44:38;;;;;;;3.67;2.90;;;;;;;12.36;100.00;94978.63;5012475;28;20041;-63
2021/10/20 07:47:03;;;;;;;4.60;3.05;;;;;;;12.48;100.00;94961.13;5011098;28;20587;-62
2021/10/20 07:49:28;;;;;;;4.03;3.08;;;;;;;12.71;100.00;94937.31;5010259;28;20033;-62
2021/10/20 07:51:57;;;;;;;3.58;2.63;;;;;;;13.06;100.00;94923.53;5010066;28;20389;-63
2021/10/20 07:54:24;;;;;;;5.40;3.25;;;;;;;13.33;100.00;94906.06;5009697;28;20025;-62
2021/10/20 07:56:51;;;;;;;6.30;3.22;;;;;;;13.55;100.00;94900.16;5010475;28;20039;-63
2021/10/20 07:59:16;;;;;;;6.35;2.83;;;;;;;13.74;100.00;94906.38;5009588;28;20045;-63
2021/10/20 08:01:41;;;;;;;4.72;2.90;;;;;;;13.95;100.00;94906.13;5010171;28;20026;-63
2021/10/20 08:04:07;;;;;;;4.15;2.97;;;;;;;14.12;100.00;94914.53;5010288;28;20033;-64
2021/10/20 08:06:32;;;;;;;6.38;3.08;;;;;;;14.33;100.00;94928.50;5010163;28;20022;-63
2021/10/20 08:08:57;;;;;;;5.72;2.97;;;;;;;14.52;100.00;94942.78;5009852;28;20032;-63
2021/10/20 08:11:23;;;;;;;4.53;2.92;;;;;;;14.75;100.00;94957.25;5010144;28;20040;-64
2021/10/20 08:13:48;;;;;;;3.33;2.70;;;;;;;14.96;100.00;94969.31;5009542;28;20105;-66
2021/10/20 08:16:13;;;;;;;4.13;2.75;;;;;;;15.22;100.00;94982.38;5006948;28;20400;-62
2021/10/20 08:18:41;;;;;;;5.38;3.13;;;;;;;15.54;100.00;95012.03;4991267;28;20026;-62
2021/10/20 08:21:07;;;;;;;4.95;2.97;;;;;;;15.87;100.00;95039.03;5010135;28;20034;-62
2021/10/20 08:23:34;;;;;;;4.20;2.78;;;;;;;16.04;100.00;95066.22;5010164;28;20080;-62
2021/10/20 08:26:00;;;;;;;7.97;3.15;;;;;;;16.04;100.00;95100.56;5010293;28;20037;-62
2021/10/20 08:28:25;;;;;;;4.85;3.22;;;;;;;16.12;100.00;95130.38;5011155;28;20026;-62
2021/10/20 08:30:51;;;;;;;7.35;3.30;;;;;;;16.27;100.00;95136.59;5011308;28;20113;-62
2021/10/20 08:33:19;;;;;;;4.43;2.92;;;;;;;16.17;100.00;95153.81;5010201;28;20128;-63
2021/10/20 08:35:47;;;;;;;5.20;2.92;;;;;;;16.16;100.00;95160.31;5011724;28;20105;-62
2021/10/20 08:38:15;;;;;;;5.63;2.80;;;;;;;16.37;100.00;95166.94;5010671;28;20038;-62
2021/10/20 08:40:47;;;;;;;6.50;2.95;;;;;;;16.56;100.00;95174.97;5018283;28;20049;-62
2021/10/20 08:43:20;;;;;;;3.60;2.95;;;;;;;16.79;100.00;95211.06;4999680;28;20017;-62
2021/10/20 08:45:46;;;;;;;4.93;2.83;;;;;;;16.88;100.00;95214.69;5046594;28;20053;-62
2021/10/20 08:48:13;;;;;;;3.63;2.42;;;;;;;16.96;100.00;95241.03;5029631;28;20052;-62
2021/10/20 08:50:39;;;;;;;4.03;2.78;;;;;;;16.95;100.00;95258.38;5029353;28;20029;-61
2021/10/20 08:53:05;;;;;;;3.90;2.75;;;;;;;16.97;100.00;95275.09;5029751;28;20074;-62
2021/10/20 08:55:31;;;;;;;4.57;2.55;;;;;;;16.85;100.00;95291.03;5030892;28;20052;-62
2021/10/20 08:57:56;;;;;;;4.90;2.75;;;;;;;17.03;100.00;95275.78;5028811;28;20476;-62
2021/10/20 09:00:23;;;;;;;6.43;2.92;;;;;;;17.29;100.00;95295.84;5011186;28;20028;-62
2021/10/20 09:02:51;;;;;;;3.08;2.72;;;;;;;17.52;100.00;95312.19;5034912;28;20059;-62
2021/10/20 09:05:20;;;;;;;4.80;2.97;;;;;;;17.58;100.00;95332.63;5031760;28;20022;-63
2021/10/20 09:07:48;;;;;;;4.57;2.63;;;;;;;17.72;100.00;95321.81;5000977;28;20028;-62
2021/10/20 09:10:14;;;;;;;4.68;3.15;;;;;;;17.98;100.00;95351.88;5032894;28;20146;-64
2021/10/20 09:12:42;;;;;;;6.45;2.80;;;;;;;18.10;100.00;95350.22;5032911;28;20025;-63
2021/10/20 09:15:18;;;;;;;4.50;2.75;;;;;;;18.23;100.00;95343.16;5016761;28;20052;-63
2021/10/20 09:17:52;;;;;;;4.93;2.70;;;;;;;18.35;100.00;95350.75;5042013;23;20045;-55
2021/10/20 09:20:29;;;;;;;6.90;3.25;;;;;;;18.54;100.00;95373.88;5004766;28;20045;-56
2021/10/20 09:23:04;;;;;;;7.78;2.60;;;;;;;18.55;100.00;95383.59;5023927;28;20080;-51
2021/10/20 09:25:57;;;;;;;2.95;2.50;;;;;;;18.60;100.00;95398.97;5016384;28;20453;-53
2021/10/20 09:28:31;;;;;;;4.28;2.72;;;;;;;18.86;100.00;95393.75;5036545;28;20495;-53
2021/10/20 09:31:02;;;;;;;3.33;2.45;;;;;;;18.98;100.00;95404.84;5036174;28;20434;-54
2021/10/20 09:33:31;;;;;;;3.58;2.40;;;;;;;18.78;100.00;95413.50;5019669;28;20025;-52
2021/10/20 09:36:04;;;;;;;3.28;2.33;;;;;;;18.73;100.00;95421.75;5034656;28;20033;-53
2021/10/20 09:38:34;;;;;;;2.38;2.00;;;;;;;18.68;100.00;95387.41;5033329;28;20358;-57
2021/10/20 09:41:09;;;;;;;4.50;2.20;;;;;;;18.80;100.00;95401.22;5033757;28;20048;-54
2021/10/20 09:44:01;;;;;;;2.75;2.10;;;;;;;18.91;100.00;95407.22;5029310;28;20052;-51
2021/10/20 09:46:37;;;;;;;4.35;2.40;;;;;;;18.70;100.00;95403.38;5050784;28;20403;-52
2021/10/20 09:49:14;;;;;;;3.05;2.17;;;;;;;19.11;100.00;95403.19;5053172;28;20028;-54
2021/10/20 09:51:39;;;;;;;2.13;1.90;;;;;;;18.93;100.00;95426.69;5047437;28;20029;-53
2021/10/20 09:54:28;;;;;;;6.38;2.30;;;;;;;18.65;100.00;95412.44;5040887;28;20029;-58
2021/10/20 09:57:03;;;;;;;2.35;2.10;;;;;;;18.71;100.00;95403.06;5047373;28;20033;-54
2021/10/20 09:59:32;;;;;;;3.63;2.35;;;;;;;18.99;100.00;95403.72;5025015;28;20043;-57
2021/10/20 10:01:58;;;;;;;5.32;2.40;;;;;;;19.19;100.00;95410.56;5028100;28;20061;-56
2021/10/20 10:04:25;;;;;;;2.75;2.30;;;;;;;19.46;100.00;95406.06;5047905;28;20068;-56
2021/10/20 10:06:52;;;;;;;3.30;2.40;;;;;;;19.82;100.00;95401.28;5039098;28;20037;-54
2021/10/20 10:09:18;;;;;;;3.15;2.47;;;;;;;19.97;100.00;95433.47;5028042;28;20029;-52
2021/10/20 10:11:55;;;;;;;3.20;2.05;;;;;;;19.83;100.00;95440.94;5027796;28;20128;-59
2021/10/20 10:14:26;;;;;;;2.90;2.20;;;;;;;19.95;100.00;95441.13;5015572;28;20420;-57
2021/10/20 10:16:59;;;;;;;2.50;2.00;;;;;;;19.83;100.00;95440.94;5022226;28;20053;-55
2021/10/20 10:19:26;;;;;;;4.68;2.20;;;;;;;19.56;100.00;95433.78;5037472;28;20033;-58
2021/10/20 10:21:52;;;;;;;9.95;2.45;;;;;;;18.99;100.00;95420.00;5014420;28;20064;-59
2021/10/20 10:24:18;;;;;;;5.32;2.05;;;;;;;18.91;100.00;95425.41;5045294;28;20048;-60
2021/10/20 10:27:04;;;;;;;3.20;1.67;;;;;;;18.78;100.00;95422.44;5026090;28;20033;-58
2021/10/20 10:29:30;;;;;;;3.95;2.17;;;;;;;18.69;100.00;95423.50;5028158;28;20106;-58
2021/10/20 10:32:01;;;;;;;2.90;1.83;;;;;;;18.90;100.00;95421.91;5043393;28;20021;-58
2021/10/20 10:34:34;;;;;;;2.35;1.80;;;;;;;19.08;100.00;95422.78;5035904;28;20106;-60
2021/10/20 10:37:00;;;;;;;5.20;2.17;;;;;;;19.38;100.00;95419.28;5029930;28;20064;-60
2021/10/20 10:39:30;;;;;;;4.32;1.80;;;;;;;19.51;100.00;95427.66;5035724;28;20118;-57
2021/10/20 10:42:05;;;;;;;2.58;1.92;;;;;;;19.61;100.00;95435.56;5036897;28;20032;-57
2021/10/20 10:44:36;;;;;;;5.15;2.45;;;;;;;19.64;100.00;95437.66;5045161;28;20033;-61
2021/10/20 10:47:15;;;;;;;3.55;1.85;;;;;;;20.05;100.00;95439.22;5035059;28;20384;-60
2021/10/20 10:50:01;;;;;;;4.35;2.10;;;;;;;20.28;100.00;95455.13;5034535;28;20033;-59
2021/10/20 10:52:33;;;;;;;4.32;1.92;;;;;;;20.54;100.00;95457.13;5034417;28;20445;-59
2021/10/20 10:55:23;;;;;;;2.45;1.95;;;;;;;20.55;100.00;95464.97;5026301;28;20025;-59
2021/10/20 10:57:52;;;;;;;2.20;1.83;;;;;;;20.25;100.00;95469.34;5044736;28;20095;-58
2021/10/20 11:00:18;;;;;;;3.13;1.98;;;;;;;20.13;100.00;95461.00;5042448;28;20053;-60
2021/10/20 11:02:49;;;;;;;3.45;2.08;;;;;;;20.00;100.00;95461.94;5041632;28;20063;-58
2021/10/20 11:05:20;;;;;;;3.67;2.30;;;;;;;19.67;100.00;95466.94;5044968;28;20029;-60
2021/10/20 11:07:47;;;;;;;4.05;2.20;;;;;;;19.86;100.00;95448.47;5028182;28;20017;-62
2021/10/20 11:10:14;;;;;;;2.58;1.95;;;;;;;20.15;100.00;95449.81;5024040;28;20025;-61
2021/10/20 11:12:40;;;;;;;3.05;2.20;;;;;;;20.31;100.00;95447.47;5021537;28;20032;-58
2021/10/20 11:15:06;;;;;;;2.72;2.10;;;;;;;20.22;100.00;95447.44;5024213;28;20758;-58
2021/10/20 11:17:32;;;;;;;3.08;1.98;;;;;;;20.13;100.00;95441.97;5019436;28;20044;-60
2021/10/20 11:19:58;;;;;;;3.95;1.85;;;;;;;19.88;100.00;95448.16;5019123;28;20018;-55
2021/10/20 11:22:26;;;;;;;2.90;2.17;;;;;;;20.02;100.00;95423.56;5019607;28;20017;-59
2021/10/20 11:24:53;;;;;;;2.33;2.10;;;;;;;20.08;100.00;95428.53;5022301;28;20039;-61
2021/10/20 11:27:22;;;;;;;2.92;2.10;;;;;;;20.34;100.00;95422.34;5028821;28;20494;-56
2021/10/20 11:29:49;;;;;;;4.55;1.92;;;;;;;19.95;100.00;95419.38;5025673;28;20056;-59
2021/10/20 11:32:19;;;;;;;3.45;2.30;;;;;;;20.08;100.00;95411.41;4999223;28;20075;-59
2021/10/20 11:34:45;;;;;;;2.65;1.85;;;;;;;20.31;100.00;95410.19;5008843;28;20472;-59